createdAt,value
2017-09-17T00:00:59.968Z,21.10
2017-09-17T00:03:02.578Z,21.05
2017-09-17T00:05:05.009Z,21.07
2017-09-17T00:07:07.450Z,21.12
2017-09-17T00:09:10.155Z,21.12
2017-09-17T00:11:12.598Z,21.09
2017-09-17T00:13:15.140Z,21.07
2017-09-17T00:15:17.967Z,21.09
2017-09-17T00:17:20.402Z,21.15
2017-09-17T00:19:22.862Z,21.14
2017-09-17T00:21:25.557Z,21.13
2017-09-17T00:23:28.058Z,21.06
2017-09-17T00:25:30.577Z,21.13
2017-09-17T00:27:33.303Z,21.16
2017-09-17T00:29:35.764Z,21.11
2017-09-17T00:31:38.273Z,21.08
2017-09-17T00:33:40.816Z,21.01
2017-09-17T00:35:43.389Z,21.01
2017-09-17T00:37:45.945Z,21.04
2017-09-17T00:39:48.456Z,21.04
2017-09-17T00:41:51.003Z,21.12
2017-09-17T00:43:53.489Z,21.13
2017-09-17T00:45:55.952Z,21.15
2017-09-17T00:47:58.481Z,21.16
2017-09-17T00:50:00.914Z,21.06
2017-09-17T00:52:03.504Z,21.03
2017-09-17T00:54:05.958Z,21.00
2017-09-17T00:56:08.461Z,21.01
2017-09-17T00:58:11.004Z,21.01
2017-09-17T01:00:13.541Z,20.93
2017-09-17T01:02:16.011Z,20.99
2017-09-17T01:04:18.493Z,21.06
2017-09-17T01:06:21.058Z,21.05
2017-09-17T01:08:23.536Z,21.05
2017-09-17T01:10:26.208Z,21.02
2017-09-17T01:12:28.669Z,21.04
2017-09-17T01:14:31.178Z,21.04
2017-09-17T01:16:33.723Z,20.95
2017-09-17T01:18:36.159Z,20.96
2017-09-17T01:20:38.647Z,21.02
2017-09-17T01:22:41.244Z,21.07
2017-09-17T01:24:43.676Z,21.05
2017-09-17T01:26:46.110Z,21.04
2017-09-17T01:28:48.786Z,21.05
2017-09-17T01:30:51.304Z,20.96
2017-09-17T01:32:53.843Z,20.97
2017-09-17T01:34:56.421Z,20.96
2017-09-17T01:36:58.856Z,20.94
2017-09-17T01:39:01.301Z,20.93
2017-09-17T01:41:03.780Z,20.98
2017-09-17T01:43:06.250Z,20.91
2017-09-17T01:45:08.689Z,20.92
2017-09-17T01:47:11.233Z,20.93
2017-09-17T01:49:13.665Z,20.94
2017-09-17T01:51:16.115Z,20.99
2017-09-17T01:53:18.729Z,21.00
2017-09-17T01:55:21.170Z,21.05
2017-09-17T01:57:23.664Z,20.94
2017-09-17T01:59:26.122Z,20.93
2017-09-17T02:01:28.638Z,20.98
2017-09-17T02:03:31.068Z,20.94
2017-09-17T02:05:33.682Z,20.95
2017-09-17T02:07:36.261Z,20.94
2017-09-17T02:09:38.691Z,20.98
2017-09-17T02:11:41.189Z,21.03
2017-09-17T02:13:43.620Z,21.00
2017-09-17T02:15:46.105Z,20.97
2017-09-17T02:17:48.740Z,21.00
2017-09-17T02:19:51.212Z,21.00
2017-09-17T02:21:53.712Z,21.00
2017-09-17T02:23:56.457Z,20.97
2017-09-17T02:25:59.039Z,20.90
2017-09-17T02:28:01.602Z,20.97
2017-09-17T02:30:04.109Z,20.93
2017-09-17T02:32:06.551Z,20.97
2017-09-17T02:34:09.056Z,20.99
2017-09-17T02:36:11.544Z,20.99
2017-09-17T02:38:14.067Z,20.97
2017-09-17T02:40:16.518Z,20.93
2017-09-17T02:42:19.099Z,20.90
2017-09-17T02:44:21.566Z,20.94
2017-09-17T02:46:24.007Z,20.90
2017-09-17T02:48:26.473Z,20.92
2017-09-17T02:50:28.913Z,20.88
2017-09-17T02:52:31.400Z,20.90
2017-09-17T02:54:33.873Z,20.90
2017-09-17T02:56:36.324Z,20.94
2017-09-17T02:58:38.798Z,20.93
2017-09-17T03:00:41.260Z,20.89
2017-09-17T03:02:43.696Z,20.91
2017-09-17T03:04:46.224Z,20.92
2017-09-17T03:06:48.680Z,20.97
2017-09-17T03:08:51.167Z,20.94
2017-09-17T03:10:53.608Z,20.89
2017-09-17T03:12:56.149Z,20.85
2017-09-17T03:14:58.625Z,20.91
2017-09-17T03:17:01.065Z,20.87
2017-09-17T03:19:03.616Z,20.89
2017-09-17T03:21:06.135Z,20.90
2017-09-17T03:23:08.812Z,20.90
2017-09-17T03:25:11.525Z,20.82
2017-09-17T03:27:13.991Z,20.84
2017-09-17T03:29:16.467Z,20.89
2017-09-17T03:31:19.087Z,20.91
2017-09-17T03:33:21.547Z,20.90
2017-09-17T03:35:23.985Z,20.86
2017-09-17T03:37:26.509Z,20.88
2017-09-17T03:39:29.033Z,20.91
2017-09-17T03:41:31.551Z,20.91
2017-09-17T03:43:34.025Z,20.88
2017-09-17T03:45:36.513Z,20.80
2017-09-17T03:47:38.989Z,20.87
2017-09-17T03:49:41.467Z,20.90
2017-09-17T03:51:43.932Z,20.92
2017-09-17T03:53:46.464Z,20.92
2017-09-17T03:55:48.941Z,20.87
2017-09-17T03:57:51.433Z,20.86
2017-09-17T03:59:53.996Z,20.91
2017-09-17T04:01:56.487Z,20.94
2017-09-17T04:03:58.929Z,20.91
2017-09-17T04:06:01.439Z,20.81
2017-09-17T04:08:03.917Z,20.84
2017-09-17T04:10:06.396Z,20.84
2017-09-17T04:12:08.838Z,20.85
2017-09-17T04:14:11.310Z,20.87
2017-09-17T04:16:13.749Z,20.85
2017-09-17T04:18:16.246Z,20.86
2017-09-17T04:20:18.758Z,20.83
2017-09-17T04:22:21.218Z,20.85
2017-09-17T04:24:23.659Z,20.88
2017-09-17T04:26:26.244Z,20.84
2017-09-17T04:28:28.716Z,20.81
2017-09-17T04:30:31.157Z,20.79
2017-09-17T04:32:33.645Z,20.81
2017-09-17T04:34:36.232Z,20.89
2017-09-17T04:36:38.669Z,20.79
2017-09-17T04:38:41.136Z,20.68
2017-09-17T04:40:43.603Z,20.82
2017-09-17T04:42:46.162Z,20.88
2017-09-17T04:44:48.683Z,20.88
2017-09-17T04:46:51.154Z,20.76
2017-09-17T04:48:53.681Z,20.83
2017-09-17T04:50:56.176Z,20.90
2017-09-17T04:52:58.677Z,20.77
2017-09-17T04:55:01.195Z,20.73
2017-09-17T04:57:03.662Z,20.82
2017-09-17T04:59:06.096Z,20.84
2017-09-17T05:01:08.578Z,20.80
2017-09-17T05:03:11.073Z,20.87
2017-09-17T05:05:13.593Z,20.91
2017-09-17T05:07:16.034Z,20.89
2017-09-17T05:09:18.516Z,20.90
2017-09-17T05:11:20.949Z,20.87
2017-09-17T05:13:23.385Z,20.94
2017-09-17T05:15:25.931Z,20.88
2017-09-17T05:17:28.381Z,20.78
2017-09-17T05:19:30.833Z,20.75
2017-09-17T05:21:33.344Z,20.77
2017-09-17T05:23:35.774Z,20.76
2017-09-17T05:25:38.212Z,20.83
2017-09-17T05:27:40.949Z,20.84
2017-09-17T05:29:43.407Z,20.78
2017-09-17T05:31:45.844Z,20.86
2017-09-17T05:33:48.350Z,20.92
2017-09-17T05:35:50.792Z,20.90
2017-09-17T05:37:53.224Z,20.92
2017-09-17T05:39:55.742Z,20.90
2017-09-17T05:41:58.200Z,20.91
2017-09-17T05:44:00.810Z,20.92
2017-09-17T05:46:03.320Z,20.83
2017-09-17T05:48:05.771Z,20.80
2017-09-17T05:50:08.242Z,20.86
2017-09-17T05:52:10.789Z,20.89
2017-09-17T05:54:13.237Z,20.80
2017-09-17T05:56:15.746Z,20.86
2017-09-17T05:58:18.357Z,20.87
2017-09-17T06:00:20.838Z,20.81
2017-09-17T06:02:23.283Z,20.82
2017-09-17T06:04:25.793Z,20.86
2017-09-17T06:06:28.232Z,20.88
2017-09-17T06:08:30.742Z,20.88
2017-09-17T06:10:33.258Z,20.94
2017-09-17T06:12:36.799Z,20.92
2017-09-17T06:14:39.229Z,20.86
2017-09-17T06:16:41.700Z,20.75
2017-09-17T06:18:44.136Z,20.77
2017-09-17T06:20:46.625Z,20.82
2017-09-17T06:22:49.220Z,20.89
2017-09-17T06:24:51.724Z,20.92
2017-09-17T06:26:54.232Z,20.83
2017-09-17T06:28:57.285Z,20.96
2017-09-17T06:30:59.717Z,20.77
2017-09-17T06:33:02.218Z,20.78
2017-09-17T06:35:05.041Z,20.88
2017-09-17T06:37:07.544Z,20.88
2017-09-17T06:39:10.043Z,20.85
2017-09-17T06:41:12.553Z,20.92
2017-09-17T06:43:14.997Z,20.93
2017-09-17T06:45:17.552Z,20.92
2017-09-17T06:47:20.128Z,20.89
2017-09-17T06:49:22.604Z,20.97
2017-09-17T06:51:25.305Z,21.00
2017-09-17T06:53:27.841Z,20.87
2017-09-17T06:55:30.337Z,20.92
2017-09-17T06:57:32.764Z,20.94
2017-09-17T06:59:35.228Z,20.91
2017-09-17T07:01:37.823Z,20.93
2017-09-17T07:03:40.319Z,20.95
2017-09-17T07:05:42.793Z,20.98
2017-09-17T07:07:45.338Z,20.99
2017-09-17T07:09:47.807Z,20.88
2017-09-17T07:11:50.361Z,20.98
2017-09-17T07:13:52.852Z,20.90
2017-09-17T07:15:55.369Z,20.85
2017-09-17T07:17:57.848Z,20.89
2017-09-17T07:20:00.282Z,20.90
2017-09-17T07:22:02.730Z,20.88
2017-09-17T07:24:05.203Z,20.94
2017-09-17T07:26:07.669Z,20.93
2017-09-17T07:28:10.244Z,20.95
2017-09-17T07:30:12.844Z,20.95
2017-09-17T07:32:15.314Z,20.88
2017-09-17T07:34:17.745Z,20.87
2017-09-17T07:36:20.226Z,20.93
2017-09-17T07:38:22.691Z,20.90
2017-09-17T07:40:25.164Z,20.91
2017-09-17T07:42:27.674Z,20.91
2017-09-17T07:44:30.253Z,20.90
2017-09-17T07:46:32.795Z,20.99
2017-09-17T07:48:35.292Z,20.97
2017-09-17T07:50:37.749Z,21.02
2017-09-17T07:52:40.297Z,21.08
2017-09-17T07:54:42.817Z,21.04
2017-09-17T07:56:45.276Z,21.02
2017-09-17T07:58:47.812Z,21.04
2017-09-17T08:00:50.272Z,21.07
2017-09-17T08:02:52.850Z,21.07
2017-09-17T08:04:55.290Z,21.07
2017-09-17T08:06:57.752Z,21.04
2017-09-17T08:09:00.216Z,21.07
2017-09-17T08:11:02.724Z,21.10
2017-09-17T08:13:05.192Z,21.05
2017-09-17T08:15:07.727Z,21.09
2017-09-17T08:17:10.258Z,21.15
2017-09-17T08:19:12.924Z,21.13
2017-09-17T08:21:15.542Z,21.10
2017-09-17T08:23:18.037Z,21.02
2017-09-17T08:25:20.525Z,21.09
2017-09-17T08:27:23.077Z,21.16
2017-09-17T08:29:25.532Z,21.12
2017-09-17T08:31:28.125Z,21.16
2017-09-17T08:33:30.722Z,21.14
2017-09-17T08:35:33.248Z,21.12
2017-09-17T08:37:35.703Z,21.13
2017-09-17T08:39:38.207Z,21.14
2017-09-17T08:41:40.687Z,21.17
2017-09-17T08:43:43.184Z,21.21
2017-09-17T08:45:45.696Z,21.15
2017-09-17T08:47:48.265Z,21.16
2017-09-17T08:49:50.895Z,21.21
2017-09-17T08:51:53.499Z,21.23
2017-09-17T08:53:55.935Z,21.20
2017-09-17T08:55:59.473Z,21.19
2017-09-17T08:58:01.964Z,21.20
2017-09-17T09:00:04.400Z,21.26
2017-09-17T09:02:06.888Z,21.28
2017-09-17T09:04:09.442Z,21.27
2017-09-17T09:06:11.877Z,21.26
2017-09-17T09:08:14.385Z,21.23
2017-09-17T09:10:16.821Z,21.25
2017-09-17T09:12:19.282Z,21.24
2017-09-17T09:14:21.746Z,21.30
2017-09-17T09:16:24.222Z,21.33
2017-09-17T09:18:26.792Z,21.35
2017-09-17T09:20:29.276Z,21.36
2017-09-17T09:22:31.809Z,21.37
2017-09-17T09:24:34.248Z,21.39
2017-09-17T09:26:36.893Z,21.37
2017-09-17T09:28:39.364Z,21.39
2017-09-17T09:30:41.872Z,21.37
2017-09-17T09:32:44.460Z,21.39
2017-09-17T09:34:46.929Z,21.44
2017-09-17T09:36:49.375Z,21.37
2017-09-17T09:38:51.866Z,21.37
2017-09-17T09:40:54.450Z,21.35
2017-09-17T09:42:56.888Z,21.40
2017-09-17T09:44:59.434Z,21.42
2017-09-17T09:47:01.972Z,21.49
2017-09-17T09:49:04.460Z,21.44
2017-09-17T09:51:07.106Z,21.45
2017-09-17T09:53:09.545Z,21.43
2017-09-17T09:55:12.060Z,21.44
2017-09-17T09:57:14.614Z,21.45
2017-09-17T09:59:17.084Z,21.44
2017-09-17T10:01:19.523Z,21.45
2017-09-17T10:03:21.977Z,21.41
2017-09-17T10:05:24.496Z,21.47
2017-09-17T10:07:26.962Z,21.50
2017-09-17T10:09:29.554Z,21.53
2017-09-17T10:11:31.985Z,21.56
2017-09-17T10:13:34.626Z,21.57
2017-09-17T10:15:37.089Z,21.63
2017-09-17T10:17:39.605Z,21.56
2017-09-17T10:19:42.116Z,21.58
2017-09-17T10:21:44.697Z,21.60
2017-09-17T10:23:47.307Z,21.57
2017-09-17T10:25:49.765Z,21.61
2017-09-17T10:27:52.629Z,21.58
2017-09-17T10:29:56.128Z,21.55
2017-09-17T10:31:58.662Z,21.56
2017-09-17T10:34:01.223Z,21.58
2017-09-17T10:36:03.746Z,21.59
2017-09-17T10:38:06.274Z,21.61
2017-09-17T10:40:08.796Z,21.62
2017-09-17T10:42:11.304Z,21.58
2017-09-17T10:44:13.772Z,21.58
2017-09-17T10:46:16.344Z,21.59
2017-09-17T10:48:18.833Z,21.62
2017-09-17T10:50:21.280Z,21.59
2017-09-17T10:52:23.814Z,21.57
2017-09-17T10:54:26.368Z,21.55
2017-09-17T10:56:28.838Z,21.61
2017-09-17T10:58:31.312Z,21.65
2017-09-17T11:00:33.794Z,21.58
2017-09-17T11:02:36.262Z,21.60
2017-09-17T11:04:38.837Z,21.60
2017-09-17T11:06:41.272Z,21.62
2017-09-17T11:08:43.776Z,21.57
2017-09-17T11:10:46.245Z,21.60
2017-09-17T11:12:48.721Z,21.62
2017-09-17T11:14:51.234Z,21.66
2017-09-17T11:16:53.728Z,21.64
2017-09-17T11:18:56.241Z,21.63
2017-09-17T11:20:58.759Z,21.63
2017-09-17T11:23:01.378Z,21.67
2017-09-17T11:25:03.812Z,21.69
2017-09-17T11:27:06.251Z,21.65
2017-09-17T11:29:08.772Z,21.68
2017-09-17T11:31:11.215Z,21.72
2017-09-17T11:33:13.672Z,21.72
2017-09-17T11:35:16.633Z,21.74
2017-09-17T11:37:19.069Z,21.75
2017-09-17T11:39:21.548Z,21.77
2017-09-17T11:41:24.028Z,21.80
2017-09-17T11:43:26.566Z,21.76
2017-09-17T11:45:29.024Z,21.76
2017-09-17T11:47:31.609Z,21.77
2017-09-17T11:49:34.181Z,21.77
2017-09-17T11:51:36.617Z,21.79
2017-09-17T11:53:39.109Z,21.77
2017-09-17T11:55:41.553Z,21.77
2017-09-17T11:57:44.022Z,21.76
2017-09-17T11:59:46.554Z,21.81
2017-09-17T12:01:49.070Z,21.79
2017-09-17T12:03:51.516Z,21.79
2017-09-17T12:05:54.045Z,21.80
2017-09-17T12:07:56.492Z,21.83
2017-09-17T12:09:59.014Z,21.79
2017-09-17T12:12:01.468Z,21.80
2017-09-17T12:14:04.011Z,21.84
2017-09-17T12:16:06.523Z,21.85
2017-09-17T12:18:08.987Z,21.81
2017-09-17T12:20:11.424Z,21.79
2017-09-17T12:22:13.920Z,21.79
2017-09-17T12:24:16.546Z,21.77
2017-09-17T12:26:19.013Z,21.76
2017-09-17T12:28:21.469Z,21.76
2017-09-17T12:30:23.936Z,21.74
2017-09-17T12:32:26.377Z,21.75
2017-09-17T12:34:28.929Z,21.71
2017-09-17T12:36:31.532Z,21.72
2017-09-17T12:38:33.997Z,21.71
2017-09-17T12:40:36.474Z,21.74
2017-09-17T12:42:38.961Z,21.73
2017-09-17T12:44:41.414Z,21.75
2017-09-17T12:46:43.929Z,21.75
2017-09-17T12:48:46.432Z,21.76
2017-09-17T12:50:48.897Z,21.78
2017-09-17T12:52:51.335Z,21.80
2017-09-17T12:54:53.828Z,21.79
2017-09-17T12:56:56.286Z,21.81
2017-09-17T12:58:58.880Z,21.76
2017-09-17T13:01:01.420Z,21.78
2017-09-17T13:03:03.864Z,21.78
2017-09-17T13:05:06.372Z,21.79
2017-09-17T13:07:09.010Z,21.79
2017-09-17T13:09:11.593Z,21.85
2017-09-17T13:11:14.072Z,21.90
2017-09-17T13:13:16.611Z,21.94
2017-09-17T13:15:19.059Z,21.91
2017-09-17T13:17:21.626Z,21.95
2017-09-17T13:19:24.141Z,21.92
2017-09-17T13:21:26.640Z,21.86
2017-09-17T13:23:29.078Z,21.85
2017-09-17T13:25:31.583Z,21.86
2017-09-17T13:27:34.018Z,21.89
2017-09-17T13:29:36.454Z,21.91
2017-09-17T13:31:38.982Z,21.88
2017-09-17T13:33:41.432Z,21.86
2017-09-17T13:35:43.870Z,21.90
2017-09-17T13:37:46.493Z,21.91
2017-09-17T13:39:49.061Z,21.91
2017-09-17T13:41:51.564Z,21.89
2017-09-17T13:43:54.042Z,21.91
2017-09-17T13:45:56.540Z,21.93
2017-09-17T13:47:58.977Z,21.93
2017-09-17T13:50:01.439Z,21.93
2017-09-17T13:52:03.881Z,21.98
2017-09-17T13:54:06.333Z,21.99
2017-09-17T13:56:08.886Z,21.99
2017-09-17T13:58:11.393Z,21.97
2017-09-17T14:00:13.826Z,21.94
2017-09-17T14:02:16.340Z,21.97
2017-09-17T14:04:19.383Z,21.99
2017-09-17T14:09:03.389Z,21.96
2017-09-17T14:11:06.430Z,21.98
2017-09-17T14:13:08.880Z,21.97
2017-09-17T14:15:11.367Z,21.96
2017-09-17T14:17:13.912Z,21.94
2017-09-17T14:19:16.359Z,21.92
2017-09-17T14:21:18.885Z,21.92
2017-09-17T14:23:21.330Z,21.92
2017-09-17T14:25:23.777Z,21.94
2017-09-17T14:27:26.398Z,21.95
2017-09-17T14:29:28.892Z,21.94
2017-09-17T14:31:31.359Z,21.89
2017-09-17T14:33:33.849Z,21.86
2017-09-17T14:35:36.381Z,21.87
2017-09-17T14:37:38.881Z,21.87
2017-09-17T14:39:41.815Z,21.85
2017-09-17T14:41:44.279Z,21.82
2017-09-17T14:43:46.725Z,21.82
2017-09-17T14:45:49.182Z,21.81
2017-09-17T14:47:51.652Z,21.81
2017-09-17T14:49:54.200Z,21.83
2017-09-17T14:51:56.676Z,21.80
2017-09-17T14:53:59.122Z,21.79
2017-09-17T14:56:01.560Z,21.81
2017-09-17T14:58:04.069Z,21.83
2017-09-17T15:00:06.515Z,21.79
2017-09-17T15:02:08.959Z,21.78
2017-09-17T15:04:11.570Z,21.79
2017-09-17T15:06:14.025Z,21.79
2017-09-17T15:08:16.496Z,21.82
2017-09-17T15:10:18.991Z,21.80
2017-09-17T15:12:21.492Z,21.82
2017-09-17T15:14:23.965Z,21.80
2017-09-17T15:16:26.472Z,21.84
2017-09-17T15:18:29.077Z,21.84
2017-09-17T15:20:31.511Z,21.87
2017-09-17T15:22:33.988Z,21.87
2017-09-17T15:24:36.579Z,21.87
2017-09-17T15:26:39.049Z,21.84
2017-09-17T15:28:41.566Z,21.86
2017-09-17T15:30:44.000Z,21.88
2017-09-17T15:32:46.442Z,21.90
2017-09-17T15:34:48.943Z,21.87
2017-09-17T15:36:51.457Z,21.88
2017-09-17T15:38:53.904Z,21.88
2017-09-17T15:40:56.500Z,21.88
2017-09-17T15:42:58.947Z,21.83
2017-09-17T15:45:01.433Z,21.80
2017-09-17T15:47:03.905Z,21.81
2017-09-17T15:49:06.340Z,21.80
2017-09-17T15:51:08.786Z,21.81
2017-09-17T15:53:11.368Z,21.78
2017-09-17T15:55:13.836Z,21.81
2017-09-17T15:57:16.415Z,21.81
2017-09-17T15:59:18.966Z,21.78
2017-09-17T16:01:21.428Z,21.78
2017-09-17T16:03:23.919Z,21.76
2017-09-17T16:05:26.504Z,21.75
2017-09-17T16:07:29.033Z,21.76
2017-09-17T16:09:31.645Z,21.75
2017-09-17T16:11:34.108Z,21.78
2017-09-17T16:13:36.556Z,21.71
2017-09-17T16:15:39.053Z,21.74
2017-09-17T16:17:41.583Z,21.75
2017-09-17T16:19:44.094Z,21.72
2017-09-17T16:21:46.567Z,21.74
2017-09-17T16:23:49.035Z,21.72
2017-09-17T16:25:51.498Z,21.73
2017-09-17T16:27:53.973Z,21.71
2017-09-17T16:29:56.485Z,21.71
2017-09-17T16:31:58.953Z,21.71
2017-09-17T16:34:01.404Z,21.73
2017-09-17T16:36:03.956Z,21.68
2017-09-17T16:38:06.417Z,21.69
2017-09-17T16:40:09.004Z,21.68
2017-09-17T16:42:11.650Z,21.67
2017-09-17T16:44:14.114Z,21.65
2017-09-17T16:46:16.613Z,21.66
2017-09-17T16:48:19.083Z,21.65
2017-09-17T16:50:21.569Z,21.66
2017-09-17T16:52:24.129Z,21.66
2017-09-17T16:54:26.669Z,21.64
2017-09-17T16:56:29.186Z,21.62
2017-09-17T16:58:31.616Z,21.64
2017-09-17T17:00:34.093Z,21.63
2017-09-17T17:02:36.544Z,21.62
2017-09-17T17:04:39.023Z,21.59
2017-09-17T17:06:41.489Z,21.60
2017-09-17T17:08:44.033Z,21.58
2017-09-17T17:10:46.492Z,21.59
2017-09-17T17:12:48.982Z,21.56
2017-09-17T17:14:51.485Z,21.53
2017-09-17T17:16:54.026Z,21.53
2017-09-17T17:18:56.501Z,21.52
2017-09-17T17:20:59.203Z,21.52
2017-09-17T17:23:01.657Z,21.52
2017-09-17T17:25:04.162Z,21.51
2017-09-17T17:27:06.617Z,21.51
2017-09-17T17:29:09.114Z,21.52
2017-09-17T17:31:11.618Z,21.50
2017-09-17T17:33:14.147Z,21.50
2017-09-17T17:35:16.664Z,21.49
2017-09-17T17:37:19.240Z,21.48
2017-09-17T17:39:21.690Z,21.49
2017-09-17T17:41:24.174Z,21.49
2017-09-17T17:43:26.987Z,21.49
2017-09-17T17:45:29.499Z,21.48
2017-09-17T17:47:32.019Z,21.48
2017-09-17T17:49:34.518Z,21.48
2017-09-17T17:51:37.065Z,21.48
2017-09-17T17:53:39.514Z,21.49
2017-09-17T17:55:42.140Z,21.53
2017-09-17T17:57:44.624Z,21.54
2017-09-17T17:59:47.068Z,21.54
2017-09-17T18:01:49.593Z,21.53
2017-09-17T18:03:52.087Z,21.55
2017-09-17T18:05:54.605Z,21.51
2017-09-17T18:07:57.268Z,21.47
2017-09-17T18:09:59.783Z,21.43
2017-09-17T18:12:02.315Z,21.41
2017-09-17T18:14:04.793Z,21.39
2017-09-17T18:16:07.321Z,21.36
2017-09-17T18:18:09.821Z,21.39
2017-09-17T18:20:12.329Z,21.40
2017-09-17T18:22:14.811Z,21.38
2017-09-17T18:24:17.256Z,21.37
2017-09-17T18:26:19.710Z,21.39
2017-09-17T18:28:22.170Z,21.40
2017-09-17T18:30:24.604Z,21.38
2017-09-17T18:32:27.103Z,21.36
2017-09-17T18:34:29.607Z,21.34
2017-09-17T18:36:32.069Z,21.35
2017-09-17T18:38:34.558Z,21.35
2017-09-17T18:40:37.197Z,21.35
2017-09-17T18:42:40.307Z,21.31
2017-09-17T18:44:43.005Z,21.32
2017-09-17T18:46:46.478Z,21.33
2017-09-17T18:48:49.626Z,21.31
2017-09-17T18:50:57.706Z,21.29
2017-09-17T18:53:00.162Z,21.28
2017-09-17T18:55:02.633Z,21.27
2017-09-17T18:57:05.156Z,21.24
2017-09-17T18:59:07.626Z,21.24
2017-09-17T19:01:10.194Z,21.25
2017-09-17T19:03:12.667Z,21.25
2017-09-17T19:05:15.100Z,21.26
2017-09-17T19:07:17.569Z,21.26
2017-09-17T19:09:20.037Z,21.25
2017-09-17T19:11:22.613Z,21.24
2017-09-17T19:13:25.064Z,21.23
2017-09-17T19:15:27.628Z,21.22
2017-09-17T19:17:30.069Z,21.22
2017-09-17T19:19:32.504Z,21.23
2017-09-17T19:21:34.978Z,21.23
2017-09-17T19:23:37.514Z,21.25
2017-09-17T19:25:39.955Z,21.26
2017-09-17T19:27:42.413Z,21.25
2017-09-17T19:29:44.846Z,21.21
2017-09-17T19:31:47.336Z,21.23
2017-09-17T19:33:49.871Z,21.21
2017-09-17T19:35:52.321Z,21.18
2017-09-17T19:37:54.793Z,21.16
2017-09-17T19:39:57.298Z,21.17
2017-09-17T19:41:59.756Z,21.20
2017-09-17T19:44:02.198Z,21.21
2017-09-17T19:46:04.988Z,21.20
2017-09-17T19:48:07.445Z,21.17
2017-09-17T19:50:09.925Z,21.16
2017-09-17T19:52:12.388Z,21.17
2017-09-17T19:54:14.843Z,21.18
2017-09-17T19:56:17.289Z,21.15
2017-09-17T19:58:19.773Z,21.17
2017-09-17T20:00:22.264Z,21.19
2017-09-17T20:02:24.825Z,21.17
2017-09-17T20:04:27.305Z,21.18
2017-09-17T20:06:29.756Z,21.17
2017-09-17T20:08:32.281Z,21.15
2017-09-17T20:10:34.792Z,21.11
2017-09-17T20:12:37.301Z,21.13
2017-09-17T20:14:39.784Z,21.14
2017-09-17T20:16:42.273Z,21.14
2017-09-17T20:18:44.775Z,21.14
2017-09-17T20:20:47.298Z,21.13
2017-09-17T20:22:49.783Z,21.14
2017-09-17T20:24:52.243Z,21.13
2017-09-17T20:26:54.693Z,21.13
2017-09-17T20:28:57.184Z,21.11
2017-09-17T20:30:59.635Z,21.10
2017-09-17T20:33:02.092Z,21.11
2017-09-17T20:35:04.609Z,21.08
2017-09-17T20:37:07.067Z,21.10
2017-09-17T20:39:09.517Z,21.13
2017-09-17T20:41:12.051Z,21.09
2017-09-17T20:43:14.508Z,21.08
2017-09-17T20:45:17.104Z,21.08
2017-09-17T20:47:19.789Z,21.05
2017-09-17T20:49:22.246Z,21.07
2017-09-17T20:51:24.779Z,21.08
2017-09-17T20:53:27.327Z,21.07
2017-09-17T20:55:29.808Z,21.09
2017-09-17T20:57:32.360Z,21.08
2017-09-17T20:59:34.865Z,21.07
2017-09-17T21:01:37.385Z,21.11
2017-09-17T21:03:39.940Z,21.10
2017-09-17T21:05:42.407Z,21.06
2017-09-17T21:07:44.864Z,21.08
2017-09-17T21:09:47.306Z,21.05
2017-09-17T21:11:49.844Z,21.05
2017-09-17T21:13:52.299Z,21.04
2017-09-17T21:15:54.769Z,21.08
2017-09-17T21:17:57.256Z,21.04
2017-09-17T21:19:59.820Z,21.02
2017-09-17T21:22:02.439Z,20.97
2017-09-17T21:24:04.903Z,21.00
2017-09-17T21:26:07.340Z,20.97
2017-09-17T21:28:09.865Z,20.98
2017-09-17T21:30:12.332Z,20.96
2017-09-17T21:32:14.781Z,21.04
2017-09-17T21:34:17.232Z,21.04
2017-09-17T21:36:19.792Z,21.05
2017-09-17T21:38:22.300Z,21.03
2017-09-17T21:40:24.815Z,21.02
2017-09-17T21:42:27.288Z,21.03
2017-09-17T21:44:29.768Z,21.00
2017-09-17T21:46:32.226Z,21.01
2017-09-17T21:48:34.921Z,21.04
2017-09-17T21:50:37.416Z,21.03
2017-09-17T21:52:39.941Z,21.05
2017-09-17T21:54:42.421Z,21.05
2017-09-17T21:56:44.982Z,21.04
2017-09-17T21:58:47.439Z,21.02
2017-09-17T22:00:50.004Z,21.02
2017-09-17T22:02:52.445Z,21.02
2017-09-17T22:04:54.966Z,21.02
2017-09-17T22:06:57.470Z,20.98
2017-09-17T22:09:00.065Z,20.99
2017-09-17T22:11:02.520Z,21.01
2017-09-17T22:13:05.096Z,21.00
2017-09-17T22:15:07.540Z,20.98
2017-09-17T22:17:10.096Z,20.97
2017-09-17T22:19:12.594Z,20.97
2017-09-17T22:21:15.045Z,20.98
2017-09-17T22:23:17.505Z,20.99
2017-09-17T22:25:20.026Z,21.02
2017-09-17T22:27:22.476Z,20.97
2017-09-17T22:29:24.955Z,20.95
2017-09-17T22:31:27.416Z,20.97
2017-09-17T22:33:29.920Z,20.98
2017-09-17T22:35:32.377Z,20.96
2017-09-17T22:37:34.999Z,20.97
2017-09-17T22:39:37.484Z,20.96
2017-09-17T22:41:39.996Z,20.97
2017-09-17T22:43:42.484Z,20.96
2017-09-17T22:45:45.022Z,20.97
2017-09-17T22:47:47.506Z,20.98
2017-09-17T22:49:50.126Z,21.00
2017-09-17T22:51:52.655Z,20.97
2017-09-17T22:53:55.118Z,20.94
2017-09-17T22:55:57.568Z,20.93
2017-09-17T22:58:00.032Z,20.87
2017-09-17T23:00:02.521Z,20.91
2017-09-17T23:02:05.005Z,20.90
2017-09-17T23:04:07.524Z,20.92
2017-09-17T23:06:10.065Z,20.95
2017-09-17T23:08:12.541Z,20.93
2017-09-17T23:10:14.981Z,20.91
2017-09-17T23:12:17.469Z,20.92
2017-09-17T23:14:19.973Z,20.92
2017-09-17T23:16:22.414Z,20.91
2017-09-17T23:18:25.020Z,20.92
2017-09-17T23:20:27.573Z,20.89
2017-09-17T23:22:30.016Z,20.88
2017-09-17T23:24:32.489Z,20.87
2017-09-17T23:26:35.136Z,20.87
2017-09-17T23:28:37.608Z,20.85
2017-09-17T23:30:40.080Z,20.83
2017-09-17T23:32:42.606Z,20.84
2017-09-17T23:34:45.049Z,20.82
2017-09-17T23:36:47.504Z,20.82
2017-09-17T23:38:49.976Z,20.88
2017-09-17T23:40:52.420Z,20.89
2017-09-17T23:42:54.870Z,20.92
2017-09-17T23:44:57.466Z,20.93
2017-09-17T23:46:59.912Z,20.88
2017-09-17T23:49:02.373Z,20.88
2017-09-17T23:51:04.886Z,20.90
2017-09-17T23:53:07.419Z,20.91
2017-09-17T23:55:09.857Z,20.92
2017-09-17T23:57:12.375Z,20.85
2017-09-17T23:59:14.932Z,20.87
